createdAt,value
2017-07-01T00:00:42.776Z,67.34
2017-07-01T00:01:42.820Z,67.15
2017-07-01T00:02:42.853Z,67.34
2017-07-01T00:03:42.896Z,67.15
2017-07-01T00:04:42.937Z,67.05
2017-07-01T00:05:42.968Z,67.15
2017-07-01T00:06:43.010Z,67.34
2017-07-01T00:07:43.053Z,67.15
2017-07-01T00:08:43.087Z,67.25
2017-07-01T00:09:43.122Z,67.54
2017-07-01T00:10:43.167Z,67.44
2017-07-01T00:11:43.203Z,67.72
2017-07-01T00:12:43.237Z,67.54
2017-07-01T00:13:43.276Z,67.91
2017-07-01T00:14:43.631Z,67.54
2017-07-01T00:15:43.358Z,67.44
2017-07-01T00:16:43.397Z,67.44
2017-07-01T00:17:43.739Z,67.54
2017-07-01T00:18:43.475Z,67.54
2017-07-01T00:19:43.507Z,67.82
2017-07-01T00:20:43.552Z,67.44
2017-07-01T00:21:43.896Z,67.91
2017-07-01T00:22:43.620Z,68.01
2017-07-01T00:23:43.666Z,67.91
2017-07-01T00:24:44.007Z,67.72
2017-07-01T00:25:43.742Z,67.72
2017-07-01T00:26:43.778Z,67.72
2017-07-01T00:27:44.128Z,67.54
2017-07-01T00:28:43.858Z,67.54
2017-07-01T00:29:43.897Z,67.72
2017-07-01T00:30:43.931Z,67.63
2017-07-01T00:31:43.968Z,67.72
2017-07-01T00:32:44.316Z,67.72
2017-07-01T00:33:44.043Z,67.63
2017-07-01T00:34:44.088Z,67.44
2017-07-01T00:35:44.124Z,68.11
2017-07-01T00:36:44.164Z,67.44
2017-07-01T00:37:44.513Z,67.54
2017-07-01T00:38:44.234Z,67.72
2017-07-01T00:39:44.275Z,67.72
2017-07-01T00:40:44.316Z,68.01
2017-07-01T00:41:44.355Z,68.11
2017-07-01T00:42:44.388Z,68.59
2017-07-01T00:43:44.431Z,68.11
2017-07-01T00:44:44.469Z,68.36
2017-07-01T00:45:44.507Z,68.27
2017-07-01T00:46:44.561Z,68.17
2017-07-01T00:47:44.591Z,68.4
2017-07-01T00:48:44.618Z,68.36
2017-07-01T00:49:44.658Z,68.27
2017-07-01T00:50:44.698Z,67.88
2017-07-01T00:51:44.734Z,68.36
2017-07-01T00:52:45.082Z,68.78
2017-07-01T00:53:45.117Z,68.36
2017-07-01T00:54:44.851Z,68.46
2017-07-01T00:55:44.885Z,68.84
2017-07-01T00:56:44.928Z,68.46
2017-07-01T00:57:44.968Z,68.36
2017-07-01T00:58:44.999Z,68.27
2017-07-01T00:59:45.353Z,68.36
2017-07-01T01:00:45.077Z,68.46
2017-07-01T01:01:45.433Z,69.13
2017-07-01T01:02:45.471Z,68.3
2017-07-01T01:03:45.288Z,68.27
2017-07-01T01:04:45.545Z,68.49
2017-07-01T01:05:45.268Z,68.27
2017-07-01T01:06:45.309Z,68.17
2017-07-01T01:07:45.660Z,68.46
2017-07-01T01:08:45.698Z,68.65
2017-07-01T01:09:45.429Z,68.27
2017-07-01T01:10:45.457Z,69.03
2017-07-01T01:11:45.502Z,68.65
2017-07-01T01:12:45.872Z,68.68
2017-07-01T01:13:45.599Z,68.74
2017-07-01T01:14:45.621Z,68.74
2017-07-01T01:15:45.962Z,68.65
2017-07-01T01:16:46.008Z,68.65
2017-07-01T01:17:45.726Z,68.84
2017-07-01T01:18:45.772Z,68.74
2017-07-01T01:19:46.122Z,68.74
2017-07-01T01:20:45.847Z,69.23
2017-07-01T01:21:45.882Z,68.74
2017-07-01T01:22:45.917Z,69.32
2017-07-01T01:23:46.269Z,69.13
2017-07-01T01:24:45.993Z,69.32
2017-07-01T01:25:46.030Z,69.32
2017-07-01T01:26:46.086Z,69.42
2017-07-01T01:27:46.108Z,69.23
2017-07-01T01:28:46.151Z,69.13
2017-07-01T01:29:46.492Z,69.23
2017-07-01T01:30:46.230Z,69.03
2017-07-01T01:31:46.267Z,69.03
2017-07-01T01:32:46.297Z,69.23
2017-07-01T01:33:46.345Z,69.23
2017-07-01T01:34:46.376Z,69.23
2017-07-01T01:35:46.421Z,69.23
2017-07-01T01:36:46.765Z,69.23
2017-07-01T01:37:46.495Z,69.23
2017-07-01T01:38:46.533Z,69.23
2017-07-01T01:39:46.563Z,69.23
2017-07-01T01:40:46.610Z,69.32
2017-07-01T01:41:46.648Z,69.23
2017-07-01T01:42:46.687Z,69.32
2017-07-01T01:43:46.717Z,69.23
2017-07-01T01:44:46.769Z,69.51
2017-07-01T01:45:46.796Z,69.51
2017-07-01T01:46:46.838Z,69.03
2017-07-01T01:47:46.871Z,69.32
2017-07-01T01:48:47.226Z,69.23
2017-07-01T01:49:47.255Z,69.13
2017-07-01T01:50:46.990Z,69.13
2017-07-01T01:51:47.338Z,69.13
2017-07-01T01:52:47.375Z,69.51
2017-07-01T01:53:47.101Z,69.23
2017-07-01T01:54:47.147Z,69.23
2017-07-01T01:55:47.182Z,69.23
2017-07-01T01:56:47.218Z,69.42
2017-07-01T01:57:47.568Z,69.32
2017-07-01T01:58:47.609Z,69.23
2017-07-01T01:59:47.646Z,69.32
2017-07-01T02:00:47.374Z,69.23
2017-07-01T02:01:47.718Z,69.23
2017-07-01T02:02:47.450Z,69.23
2017-07-01T02:03:47.488Z,69.23
2017-07-01T02:04:47.526Z,69.17
2017-07-01T02:05:47.576Z,69.17
2017-07-01T02:06:47.911Z,69.17
2017-07-01T02:07:47.950Z,69.13
2017-07-01T02:08:47.989Z,69.23
2017-07-01T02:09:47.711Z,69.26
2017-07-01T02:10:47.753Z,69.32
2017-07-01T02:11:47.788Z,69.13
2017-07-01T02:12:48.138Z,69.13
2017-07-01T02:13:47.862Z,69.32
2017-07-01T02:14:47.902Z,69.26
2017-07-01T02:15:48.253Z,69.07
2017-07-01T02:16:47.980Z,69.13
2017-07-01T02:17:48.023Z,69.03
2017-07-01T02:18:48.362Z,69.13
2017-07-01T02:19:48.098Z,69.32
2017-07-01T02:20:48.136Z,69.23
2017-07-01T02:21:48.178Z,69.32
2017-07-01T02:22:48.214Z,69.23
2017-07-01T02:23:48.561Z,69.17
2017-07-01T02:24:48.283Z,69.32
2017-07-01T02:25:48.322Z,69.23
2017-07-01T02:26:48.367Z,68.94
2017-07-01T02:27:48.404Z,69.23
2017-07-01T02:28:48.436Z,69.13
2017-07-01T02:29:48.793Z,68.84
2017-07-01T02:30:48.518Z,69.07
2017-07-01T02:31:48.859Z,68.97
2017-07-01T02:32:48.590Z,68.74
2017-07-01T02:33:48.632Z,68.97
2017-07-01T02:34:48.667Z,68.78
2017-07-01T02:35:48.703Z,68.59
2017-07-01T02:36:48.787Z,68.59
2017-07-01T02:37:48.783Z,68.55
2017-07-01T02:38:49.133Z,68.68
2017-07-01T02:39:49.164Z,68.65
2017-07-01T02:40:48.896Z,68.74
2017-07-01T02:41:48.932Z,68.78
2017-07-01T02:42:48.976Z,68.87
2017-07-01T02:43:49.013Z,68.97
2017-07-01T02:44:49.053Z,69.17
2017-07-01T02:45:49.091Z,68.87
2017-07-01T02:46:49.130Z,69.07
2017-07-01T02:47:49.170Z,69.17
2017-07-01T02:48:49.205Z,68.78
2017-07-01T02:49:49.242Z,69.07
2017-07-01T02:50:49.277Z,68.49
2017-07-01T02:51:49.629Z,68.97
2017-07-01T02:52:49.357Z,68.4
2017-07-01T02:53:49.700Z,68.3
2017-07-01T02:54:49.446Z,68.3
2017-07-01T02:55:49.469Z,68.49
2017-07-01T02:56:49.505Z,68.49
2017-07-01T02:57:49.851Z,68.59
2017-07-01T02:58:49.679Z,68.49
2017-07-01T02:59:49.933Z,68.78
2017-07-01T03:00:49.974Z,68.4
2017-07-01T03:01:49.705Z,68.59
2017-07-01T03:02:49.737Z,68.78
2017-07-01T03:03:49.780Z,68.49
2017-07-01T03:04:49.816Z,68.59
2017-07-01T03:05:49.858Z,68.78
2017-07-01T03:06:49.894Z,68.97
2017-07-01T03:07:49.930Z,68.49
2017-07-01T03:08:50.277Z,68.97
2017-07-01T03:09:50.014Z,68.4
2017-07-01T03:10:50.044Z,68.97
2017-07-01T03:11:50.081Z,68.78
2017-07-01T03:12:50.429Z,68.97
2017-07-01T03:13:50.474Z,68.3
2017-07-01T03:14:50.510Z,68.3
2017-07-01T03:15:50.236Z,68.4
2017-07-01T03:16:50.279Z,68.4
2017-07-01T03:17:50.628Z,68.4
2017-07-01T03:18:50.351Z,68.68
2017-07-01T03:19:50.394Z,68.4
2017-07-01T03:20:50.435Z,68.01
2017-07-01T03:21:50.467Z,68.78
2017-07-01T03:22:50.508Z,68.4
2017-07-01T03:23:50.855Z,68.21
2017-07-01T03:24:50.581Z,68.21
2017-07-01T03:25:50.624Z,68.21
2017-07-01T03:26:50.656Z,68.01
2017-07-01T03:27:50.696Z,68.78
2017-07-01T03:28:50.741Z,68.59
2017-07-01T03:29:50.773Z,68.68
2017-07-01T03:30:50.812Z,68.59
2017-07-01T03:31:50.856Z,68.49
2017-07-01T03:32:50.891Z,68.21
2017-07-01T03:33:50.930Z,68.3
2017-07-01T03:34:51.274Z,68.01
2017-07-01T03:35:51.006Z,68.4
2017-07-01T03:36:51.042Z,68.3
2017-07-01T03:37:51.082Z,68.21
2017-07-01T03:38:51.122Z,68.49
2017-07-01T03:39:51.161Z,68.01
2017-07-01T03:40:51.195Z,68.43
2017-07-01T03:41:51.238Z,68.21
2017-07-01T03:42:51.621Z,68.87
2017-07-01T03:43:51.317Z,68.14
2017-07-01T03:44:51.666Z,68.24
2017-07-01T03:45:51.388Z,68.14
2017-07-01T03:46:51.433Z,68.3
2017-07-01T03:47:51.471Z,68.11
2017-07-01T03:48:51.503Z,68.43
2017-07-01T03:49:51.548Z,68.33
2017-07-01T03:50:51.586Z,68.43
2017-07-01T03:51:51.623Z,68.43
2017-07-01T03:52:51.659Z,68.72
2017-07-01T03:53:51.696Z,68.43
2017-07-01T03:54:51.737Z,67.95
2017-07-01T03:55:51.783Z,68.05
2017-07-01T03:56:51.824Z,67.95
2017-07-01T03:57:51.851Z,68.14
2017-07-01T03:58:51.892Z,68.24
2017-07-01T03:59:51.925Z,68.33
2017-07-01T04:00:52.278Z,68.14
2017-07-01T04:01:52.009Z,68.24
2017-07-01T04:02:52.354Z,68.33
2017-07-01T04:03:52.083Z,68.05
2017-07-01T04:04:52.130Z,67.47
2017-07-01T04:05:52.467Z,67.85
2017-07-01T04:06:52.197Z,67.95
2017-07-01T04:07:52.270Z,67.47
2017-07-01T04:08:52.280Z,67.57
2017-07-01T04:09:52.311Z,67.99
2017-07-01T04:10:52.663Z,67.6
2017-07-01T04:11:52.430Z,67.6
2017-07-01T04:12:52.434Z,67.79
2017-07-01T04:13:52.465Z,67.69
2017-07-01T04:14:52.510Z,67.69
2017-07-01T04:15:52.852Z,67.6
2017-07-01T04:16:52.585Z,67.69
2017-07-01T04:17:52.621Z,67.73
2017-07-01T04:18:52.663Z,67.92
2017-07-01T04:19:52.707Z,68.02
2017-07-01T04:20:53.053Z,67.96
2017-07-01T04:21:53.095Z,67.38
2017-07-01T04:22:52.823Z,66.74
2017-07-01T04:23:53.170Z,66.07
2017-07-01T04:24:52.896Z,64.95
2017-07-01T04:25:52.941Z,64.76
2017-07-01T04:26:52.980Z,64.09
2017-07-01T04:27:53.013Z,63.89
2017-07-01T04:28:53.054Z,63.99
2017-07-01T04:29:53.099Z,63.32
2017-07-01T04:30:53.134Z,63.12
2017-07-01T04:31:53.173Z,63.22
2017-07-01T04:32:53.218Z,63.32
2017-07-01T04:33:53.560Z,63.32
2017-07-01T04:34:53.298Z,63.86
2017-07-01T04:35:53.332Z,63.28
2017-07-01T04:36:53.376Z,63.09
2017-07-01T04:37:53.418Z,63.67
2017-07-01T04:38:53.457Z,63.86
2017-07-01T04:39:53.497Z,63.57
2017-07-01T04:40:53.530Z,63.57
2017-07-01T04:41:53.572Z,63.35
2017-07-01T04:42:53.606Z,63.38
2017-07-01T04:43:53.647Z,63.35
2017-07-01T04:44:53.699Z,63.92
2017-07-01T04:45:53.732Z,63.86
2017-07-01T04:46:53.772Z,63.92
2017-07-01T04:47:54.118Z,63.54
2017-07-01T04:48:54.157Z,63.64
2017-07-01T04:49:53.887Z,63.64
2017-07-01T04:50:53.975Z,64.22
2017-07-01T04:51:53.962Z,63.54
2017-07-01T04:52:54.008Z,63.64
2017-07-01T04:53:54.355Z,63.16
2017-07-01T04:54:54.389Z,63.35
2017-07-01T04:55:54.440Z,63.16
2017-07-01T04:56:54.161Z,63.25
2017-07-01T04:57:54.204Z,63.83
2017-07-01T04:58:54.245Z,63.38
2017-07-01T04:59:54.283Z,63.73
2017-07-01T05:00:54.316Z,63.48
2017-07-01T05:01:54.364Z,63.45
2017-07-01T05:02:54.403Z,63.54
2017-07-01T05:03:54.445Z,64.15
2017-07-01T05:04:54.480Z,62.9
2017-07-01T05:05:54.518Z,63.09
2017-07-01T05:06:54.872Z,63.38
2017-07-01T05:07:54.592Z,62.71
2017-07-01T05:08:54.632Z,63.38
2017-07-01T05:09:54.678Z,63.48
2017-07-01T05:10:54.721Z,63.32
2017-07-01T05:11:54.760Z,63.02
2017-07-01T05:12:55.101Z,63.41
2017-07-01T05:13:55.149Z,62.64
2017-07-01T05:14:54.871Z,62.64
2017-07-01T05:15:54.916Z,63.02
2017-07-01T05:16:54.956Z,63.32
2017-07-01T05:17:54.990Z,62.45
2017-07-01T05:18:55.039Z,62.74
2017-07-01T05:19:55.075Z,62.55
2017-07-01T05:20:55.118Z,62.68
2017-07-01T05:21:55.155Z,62.26
2017-07-01T05:22:55.498Z,62.1
2017-07-01T05:23:55.230Z,62.29
2017-07-01T05:24:55.276Z,62.35
2017-07-01T05:25:55.309Z,62.29
2017-07-01T05:26:55.349Z,62.19
2017-07-01T05:27:55.390Z,62.38
2017-07-01T05:28:55.438Z,61.81
2017-07-01T05:29:55.777Z,61.91
2017-07-01T05:30:55.515Z,61.61
2017-07-01T05:31:55.549Z,61.52
2017-07-01T05:32:55.907Z,61.91
2017-07-01T05:33:55.634Z,61.61
2017-07-01T05:34:55.670Z,61.36
2017-07-01T05:35:55.720Z,61.36
2017-07-01T05:36:55.757Z,61.55
2017-07-01T05:37:55.796Z,61.55
2017-07-01T05:38:55.838Z,61.65
2017-07-01T05:39:55.874Z,61.74
2017-07-01T05:40:55.911Z,61.65
2017-07-01T05:41:55.952Z,61.26
2017-07-01T05:42:56.000Z,61.07
2017-07-01T05:43:56.036Z,61.49
2017-07-01T05:44:56.387Z,61.58
2017-07-01T05:45:56.116Z,61.61
2017-07-01T05:46:56.169Z,61.55
2017-07-01T05:47:56.200Z,60.71
2017-07-01T05:48:56.246Z,59.9
2017-07-01T05:49:56.280Z,58.1
2017-07-01T05:50:56.330Z,57.23
2017-07-01T05:51:56.365Z,57.54
2017-07-01T05:52:56.416Z,57.29
2017-07-01T05:53:56.454Z,57.21
2017-07-01T05:54:56.499Z,55.82
2017-07-01T05:55:56.543Z,55.36
2017-07-01T05:56:56.584Z,53.85
2017-07-01T05:57:56.932Z,52.64
2017-07-01T05:58:56.989Z,51.01
2017-07-01T05:59:56.717Z,49.58
2017-07-01T06:00:56.767Z,48.93
2017-07-01T06:01:56.874Z,47.98
2017-07-01T06:02:56.857Z,46.62
2017-07-01T06:03:56.900Z,45.38
2017-07-01T06:04:57.247Z,44.12
2017-07-01T06:05:56.994Z,43.92
2017-07-01T06:06:57.032Z,43.41
2017-07-01T06:07:57.085Z,43.41
2017-07-01T06:08:57.441Z,43.2
2017-07-01T06:09:57.180Z,44.15
2017-07-01T06:10:57.531Z,43.64
2017-07-01T06:11:57.265Z,44.2
2017-07-01T06:12:57.308Z,44.01
2017-07-01T06:13:57.666Z,43.52
2017-07-01T06:14:57.403Z,44.2
2017-07-01T06:15:57.449Z,45.07
2017-07-01T06:16:57.491Z,45.27
2017-07-01T06:17:57.539Z,43.57
2017-07-01T06:18:57.587Z,42.89
2017-07-01T06:19:57.628Z,42.13
2017-07-01T06:20:57.678Z,41.82
2017-07-01T06:21:57.740Z,42.11
2017-07-01T06:22:57.764Z,42.09
2017-07-01T06:23:58.122Z,41.97
2017-07-01T06:24:57.861Z,42.75
2017-07-01T06:25:58.211Z,42.75
2017-07-01T06:26:58.262Z,42.34
2017-07-01T06:27:57.999Z,42.82
2017-07-01T06:28:58.045Z,42.92
2017-07-01T06:29:58.089Z,43.5
2017-07-01T06:30:58.135Z,43.5
2017-07-01T06:31:58.174Z,43.91
2017-07-01T06:32:58.226Z,43.93
2017-07-01T06:33:58.272Z,42.81
2017-07-01T06:34:58.312Z,42.44
2017-07-01T06:35:58.376Z,42.08
2017-07-01T06:36:58.406Z,40.56
2017-07-01T06:37:58.774Z,40.37
2017-07-01T06:38:58.815Z,40
2017-07-01T06:39:58.863Z,39.41
2017-07-01T06:40:58.634Z,39.2
2017-07-01T06:41:58.951Z,38.79
2017-07-01T06:42:58.686Z,38.96
2017-07-01T06:43:59.043Z,39.14
2017-07-01T06:44:58.788Z,39.8
2017-07-01T06:45:58.829Z,39.7
2017-07-01T06:46:58.874Z,40.08
2017-07-01T06:47:59.221Z,40.95
2017-07-01T06:48:58.971Z,40.73
2017-07-01T06:49:59.009Z,40.83
2017-07-01T06:50:59.055Z,41.1
2017-07-01T06:51:59.101Z,41.17
2017-07-01T06:52:59.141Z,41.56
2017-07-01T06:53:59.493Z,41.93
2017-07-01T06:54:59.231Z,42.49
2017-07-01T06:55:59.285Z,42.4
2017-07-01T06:56:59.326Z,42.96
2017-07-01T06:57:59.677Z,43.05
2017-07-01T06:58:59.413Z,43.51
2017-07-01T06:59:59.455Z,43.9
2017-07-01T07:00:59.501Z,43.59
2017-07-01T07:01:59.544Z,44.17
2017-07-01T07:02:59.590Z,44.75
2017-07-01T07:03:59.630Z,45.21
2017-07-01T07:04:59.982Z,45.31
2017-07-01T07:05:59.716Z,45.59
2017-07-01T07:07:00.066Z,46.17
2017-07-01T07:07:59.807Z,45.89
2017-07-01T07:08:59.842Z,45.91
2017-07-01T07:09:59.888Z,46.1
2017-07-01T07:10:59.936Z,46
2017-07-01T07:11:59.986Z,46.03
2017-07-01T07:13:00.024Z,46.12
2017-07-01T07:14:00.373Z,45.45
2017-07-01T07:15:00.169Z,45.54
2017-07-01T07:16:00.148Z,45.35
2017-07-01T07:17:00.200Z,45.62
2017-07-01T07:18:00.237Z,45.91
2017-07-01T07:19:00.286Z,46.08
2017-07-01T07:20:00.337Z,46.85
2017-07-01T07:21:00.367Z,46.85
2017-07-01T07:22:00.721Z,46.85
2017-07-01T07:23:00.464Z,47.14
2017-07-01T07:24:00.499Z,47.43
2017-07-01T07:25:00.544Z,47.91
2017-07-01T07:26:00.590Z,47.07
2017-07-01T07:27:00.629Z,46.88
2017-07-01T07:28:00.673Z,46.88
2017-07-01T07:29:00.722Z,47.16
2017-07-01T07:30:00.779Z,47.26
2017-07-01T07:31:01.113Z,46.8
2017-07-01T07:32:00.853Z,46.7
2017-07-01T07:33:00.901Z,46.8
2017-07-01T07:34:00.938Z,46.92
2017-07-01T07:35:00.987Z,47.11
2017-07-01T07:36:01.047Z,46.34
2017-07-01T07:37:01.395Z,46.34
2017-07-01T07:38:01.117Z,45.95
2017-07-01T07:39:01.466Z,45.95
2017-07-01T07:40:01.515Z,45.76
2017-07-01T07:41:01.562Z,46.05
2017-07-01T07:42:01.295Z,45.98
2017-07-01T07:43:01.664Z,45.49
2017-07-01T07:44:01.382Z,45.3
2017-07-01T07:45:01.426Z,45.2
2017-07-01T07:46:01.485Z,45.4
2017-07-01T07:47:01.521Z,46.26
2017-07-01T07:48:01.560Z,45.81
2017-07-01T07:49:01.924Z,45.27
2017-07-01T07:50:01.660Z,44.61
2017-07-01T07:51:01.707Z,43.66
2017-07-01T07:52:01.746Z,43.08
2017-07-01T07:53:01.800Z,42.5
2017-07-01T07:54:01.843Z,42.6
2017-07-01T07:55:01.884Z,42.6
2017-07-01T07:56:02.284Z,42.5
2017-07-01T07:57:01.982Z,42.02
2017-07-01T07:58:02.343Z,41.82
2017-07-01T07:59:02.087Z,42.02
2017-07-01T08:00:02.117Z,42.03
2017-07-01T08:01:02.479Z,41.86
2017-07-01T08:02:02.218Z,41.08
2017-07-01T08:03:02.571Z,40.6
2017-07-01T08:04:02.326Z,39.75
2017-07-01T08:05:02.668Z,40.91
2017-07-01T08:06:02.408Z,39.55
2017-07-01T08:07:02.479Z,39.67
2017-07-01T08:08:02.497Z,39.37
2017-07-01T08:09:02.858Z,39.08
2017-07-01T08:10:02.906Z,39.67
2017-07-01T08:11:02.644Z,39.47
2017-07-01T08:12:02.695Z,39
2017-07-01T08:13:02.760Z,38.52
2017-07-01T08:14:02.786Z,38.5
2017-07-01T08:15:02.835Z,38.21
2017-07-01T08:16:02.883Z,38.87
2017-07-01T08:17:02.927Z,38.75
2017-07-01T08:18:03.291Z,38.93
2017-07-01T08:19:03.326Z,39.2
2017-07-01T08:20:03.071Z,40.17
2017-07-01T08:21:03.430Z,39.76
2017-07-01T08:22:03.167Z,40.05
2017-07-01T08:23:03.207Z,39.18
2017-07-01T08:24:03.256Z,40.64
2017-07-01T08:25:03.616Z,40.81
2017-07-01T08:26:03.656Z,40.61
2017-07-01T08:27:03.398Z,40.71
2017-07-01T08:28:03.755Z,41.27
2017-07-01T08:29:03.490Z,41.56
2017-07-01T08:30:03.535Z,41.83
2017-07-01T08:31:03.579Z,42.13
2017-07-01T08:32:03.935Z,42.32
2017-07-01T08:33:03.665Z,38.91
2017-07-01T08:34:04.026Z,42.88
2017-07-01T08:35:04.064Z,42.78
2017-07-01T08:36:04.120Z,43.07
2017-07-01T08:37:04.162Z,43.27
2017-07-01T08:38:03.894Z,43.07
2017-07-01T08:39:03.938Z,43.27
2017-07-01T08:40:04.000Z,44.02
2017-07-01T08:41:04.035Z,43.82
2017-07-01T08:42:04.078Z,43.54
2017-07-01T08:43:04.125Z,44.12
2017-07-01T08:44:04.163Z,43.99
2017-07-01T08:45:04.210Z,44.77
2017-07-01T08:46:04.251Z,44.7
2017-07-01T08:47:04.301Z,45.45
2017-07-01T08:48:04.344Z,45.25
2017-07-01T08:49:04.384Z,45.16
2017-07-01T08:50:04.434Z,45.25
2017-07-01T08:51:04.473Z,45.54
2017-07-01T08:52:04.523Z,45.64
2017-07-01T08:53:04.561Z,45.64
2017-07-01T08:54:04.638Z,46.22
2017-07-01T08:55:04.963Z,46.03
2017-07-01T08:56:05.002Z,46.22
2017-07-01T08:57:04.744Z,46.22
2017-07-01T08:58:05.097Z,46.32
2017-07-01T08:59:04.825Z,46.22
2017-07-01T09:00:04.877Z,46.44
2017-07-01T09:01:04.922Z,46.34
2017-07-01T09:02:04.978Z,46.53
2017-07-01T09:03:05.009Z,46.05
2017-07-01T09:04:05.357Z,45.78
2017-07-01T09:05:05.101Z,45.2
2017-07-01T09:06:05.145Z,45.22
2017-07-01T09:07:05.188Z,45.32
2017-07-01T09:08:05.235Z,45.22
2017-07-01T09:09:05.279Z,45.3
2017-07-01T09:10:05.628Z,45.3
2017-07-01T09:11:05.365Z,45.3
2017-07-01T09:12:05.412Z,45.4
2017-07-01T09:13:05.478Z,45.4
2017-07-01T09:14:05.510Z,45.98
2017-07-01T09:15:05.545Z,46.26
2017-07-01T09:16:05.598Z,45.88
2017-07-01T09:17:05.638Z,46.09
2017-07-01T09:18:05.687Z,46
2017-07-01T09:19:05.734Z,45.13
2017-07-01T09:20:05.780Z,44.93
2017-07-01T09:21:05.824Z,45.32
2017-07-01T09:22:05.865Z,45.13
2017-07-01T09:23:05.916Z,45.42
2017-07-01T09:24:05.954Z,45.42
2017-07-01T09:25:06.006Z,45.22
2017-07-01T09:26:06.051Z,45.13
2017-07-01T09:27:06.092Z,45.71
2017-07-01T09:28:06.148Z,46
2017-07-01T09:29:06.181Z,46.39
2017-07-01T09:30:06.534Z,46.08
2017-07-01T09:31:06.271Z,45.98
2017-07-01T09:32:06.323Z,45.98
2017-07-01T09:33:06.362Z,46.17
2017-07-01T09:34:06.414Z,45.98
2017-07-01T09:35:06.450Z,46.46
2017-07-01T09:36:06.503Z,46.15
2017-07-01T09:37:06.545Z,46.63
2017-07-01T09:38:06.898Z,46.92
2017-07-01T09:39:06.632Z,46.92
2017-07-01T09:40:06.680Z,47.31
2017-07-01T09:41:06.723Z,47.79
2017-07-01T09:42:06.832Z,47.5
2017-07-01T09:43:06.811Z,47.69
2017-07-01T09:44:06.855Z,47.89
2017-07-01T09:45:06.898Z,48.08
2017-07-01T09:46:06.946Z,47.79
2017-07-01T09:47:07.292Z,48.18
2017-07-01T09:48:07.034Z,48.18
2017-07-01T09:49:07.384Z,48.2
2017-07-01T09:50:07.122Z,47.91
2017-07-01T09:51:07.163Z,47.64
2017-07-01T09:52:07.215Z,47.84
2017-07-01T09:53:07.565Z,47.33
2017-07-01T09:54:07.295Z,48.2
2017-07-01T09:55:07.346Z,48.27
2017-07-01T09:56:07.390Z,49.44
2017-07-01T09:57:07.437Z,49.51
2017-07-01T09:58:07.488Z,50.18
2017-07-01T09:59:07.832Z,49.99
2017-07-01T10:00:07.561Z,50.93
2017-07-01T10:01:07.609Z,50.84
2017-07-01T10:02:07.955Z,50.91
2017-07-01T10:03:07.699Z,51.59
2017-07-01T10:04:07.735Z,52.07
2017-07-01T10:05:07.783Z,51.68
2017-07-01T10:06:07.822Z,52.17
2017-07-01T10:07:07.872Z,52.17
2017-07-01T10:08:07.913Z,52.55
2017-07-01T10:09:07.952Z,52.84
2017-07-01T10:10:08.018Z,52.94
2017-07-01T10:11:08.352Z,53.39
2017-07-01T10:12:08.086Z,53.3
2017-07-01T10:13:08.131Z,53.2
2017-07-01T10:14:08.190Z,53.85
2017-07-01T10:15:08.216Z,53.66
2017-07-01T10:16:08.255Z,53.95
2017-07-01T10:17:08.319Z,54.62
2017-07-01T10:18:08.653Z,54.6
2017-07-01T10:19:08.379Z,54.31
2017-07-01T10:20:08.429Z,54.88
2017-07-01T10:21:08.775Z,55.01
2017-07-01T10:22:08.510Z,54.62
2017-07-01T10:23:08.553Z,55.01
2017-07-01T10:24:08.900Z,54.62
2017-07-01T10:25:08.637Z,54.33
2017-07-01T10:26:08.677Z,54.43
2017-07-01T10:27:09.038Z,54.36
2017-07-01T10:28:09.079Z,54.36
2017-07-01T10:29:08.815Z,54.46
2017-07-01T10:30:08.855Z,53.97
2017-07-01T10:31:08.893Z,54.07
2017-07-01T10:32:08.940Z,53.49
2017-07-01T10:33:08.989Z,53.3
2017-07-01T10:34:09.028Z,52.75
2017-07-01T10:35:09.066Z,52.91
2017-07-01T10:36:09.111Z,53.11
2017-07-01T10:37:09.151Z,53.2
2017-07-01T10:38:09.199Z,53.11
2017-07-01T10:39:09.235Z,53.88
2017-07-01T10:40:09.294Z,53.97
2017-07-01T10:41:09.637Z,53.69
2017-07-01T10:42:09.368Z,53.59
2017-07-01T10:43:09.412Z,53.59
2017-07-01T10:44:09.765Z,53.69
2017-07-01T10:45:09.545Z,53.78
2017-07-01T10:46:09.534Z,53.78
2017-07-01T10:47:09.583Z,53.49
2017-07-01T10:48:09.935Z,53.69
2017-07-01T10:49:09.667Z,53.69
2017-07-01T10:50:09.712Z,53.59
2017-07-01T10:51:09.755Z,53.78
2017-07-01T10:52:10.108Z,53.81
2017-07-01T10:53:09.845Z,53.61
2017-07-01T10:54:09.886Z,53.81
2017-07-01T10:55:09.931Z,53.42
2017-07-01T10:56:09.970Z,52.58
2017-07-01T10:57:10.013Z,52.87
2017-07-01T10:58:10.061Z,52.48
2017-07-01T10:59:10.107Z,52.48
2017-07-01T11:00:10.473Z,52.58
2017-07-01T11:01:10.513Z,52.77
2017-07-01T11:02:10.243Z,52.7
2017-07-01T11:03:10.284Z,52.31
2017-07-01T11:04:10.327Z,52.24
2017-07-01T11:05:10.705Z,51.66
2017-07-01T11:06:10.725Z,51.56
2017-07-01T11:07:10.780Z,51.76
2017-07-01T11:08:10.817Z,51.28
2017-07-01T11:09:10.553Z,51.37
2017-07-01T11:10:10.907Z,51.28
2017-07-01T11:11:10.953Z,51.47
2017-07-01T11:12:10.687Z,51.18
2017-07-01T11:13:10.733Z,51.08
2017-07-01T11:14:10.771Z,51.64
2017-07-01T11:15:10.827Z,52.22
2017-07-01T11:16:10.865Z,52.7
2017-07-01T11:17:10.907Z,53.83
2017-07-01T11:18:10.948Z,54.39
2017-07-01T11:19:10.996Z,55.45
2017-07-01T11:20:11.034Z,55.42
2017-07-01T11:21:11.077Z,56.39
2017-07-01T11:22:11.118Z,56.07
2017-07-01T11:23:11.169Z,57.52
2017-07-01T11:24:11.209Z,57.32
2017-07-01T11:25:11.260Z,57.54
2017-07-01T11:26:11.612Z,57.64
2017-07-01T11:27:11.655Z,57.74
2017-07-01T11:28:11.379Z,58.22
2017-07-01T11:29:11.737Z,58.35
2017-07-01T11:30:11.781Z,58.35
2017-07-01T11:31:11.512Z,58.06
2017-07-01T11:32:11.553Z,58.18
2017-07-01T11:33:11.912Z,58.28
2017-07-01T11:34:11.642Z,57.99
2017-07-01T11:35:12.007Z,58.09
2017-07-01T11:36:12.043Z,58.47
2017-07-01T11:37:11.771Z,57.89
2017-07-01T11:38:12.130Z,57.19
2017-07-01T11:39:12.172Z,57.19
2017-07-01T11:40:11.904Z,57.54
2017-07-01T11:41:11.945Z,57.48
2017-07-01T11:42:11.989Z,57.64
2017-07-01T11:43:12.035Z,57.96
2017-07-01T11:44:12.390Z,57.93
2017-07-01T11:45:12.120Z,58.35
2017-07-01T11:46:12.476Z,58.15
2017-07-01T11:47:12.212Z,58.35
2017-07-01T11:48:12.569Z,57.67
2017-07-01T11:49:12.606Z,57.38
2017-07-01T11:50:12.335Z,57.48
2017-07-01T11:51:12.383Z,56.8
2017-07-01T11:52:12.428Z,56.8
2017-07-01T11:53:12.778Z,57.57
2017-07-01T11:54:12.507Z,57.29
2017-07-01T11:55:12.867Z,57.48
2017-07-01T11:56:12.903Z,57.48
2017-07-01T11:57:12.640Z,57.29
2017-07-01T11:58:12.687Z,57.29
2017-07-01T11:59:12.729Z,57.29
2017-07-01T12:00:12.776Z,57.29
2017-07-01T12:01:13.117Z,57.19
2017-07-01T12:02:12.860Z,57.19
2017-07-01T12:03:13.206Z,57.29
2017-07-01T12:04:12.940Z,57.77
2017-07-01T12:05:12.987Z,57.67
2017-07-01T12:06:13.032Z,57.41
2017-07-01T12:07:13.379Z,56.83
2017-07-01T12:08:13.120Z,56.25
2017-07-01T12:09:13.470Z,56.15
2017-07-01T12:10:13.213Z,56.25
2017-07-01T12:11:13.253Z,56.25
2017-07-01T12:12:13.294Z,55.29
2017-07-01T12:13:13.335Z,55.19
2017-07-01T12:14:13.377Z,55.16
2017-07-01T12:15:13.429Z,55.55
2017-07-01T12:16:13.461Z,55.26
2017-07-01T12:17:13.812Z,55.35
2017-07-01T12:18:13.866Z,55.35
2017-07-01T12:19:13.593Z,54.39
2017-07-01T12:20:13.644Z,54.87
2017-07-01T12:21:13.685Z,53.91
2017-07-01T12:22:13.951Z,53.83
2017-07-01T12:23:14.074Z,53.83
2017-07-01T12:24:13.816Z,53.06
2017-07-01T12:25:13.855Z,53.03
2017-07-01T12:26:13.903Z,53.81
2017-07-01T12:27:13.948Z,53.45
2017-07-01T12:28:13.990Z,52.58
2017-07-01T12:29:14.028Z,52.67
2017-07-01T12:30:14.072Z,52.67
2017-07-01T12:31:14.123Z,52.58
2017-07-01T12:32:14.167Z,52.39
2017-07-01T12:33:14.202Z,52.48
2017-07-01T12:34:14.245Z,52.75
2017-07-01T12:35:14.288Z,52.58
2017-07-01T12:36:14.643Z,52.36
2017-07-01T12:37:14.375Z,52.84
2017-07-01T12:38:14.421Z,52.75
2017-07-01T12:39:14.465Z,52.55
2017-07-01T12:40:14.502Z,52.17
2017-07-01T12:41:14.548Z,52.17
2017-07-01T12:42:14.593Z,52.36
2017-07-01T12:43:14.674Z,52.26
2017-07-01T12:44:14.677Z,52.17
2017-07-01T12:45:14.719Z,52.26
2017-07-01T12:46:14.765Z,52.45
2017-07-01T12:47:14.809Z,52.45
2017-07-01T12:48:14.845Z,51.97
2017-07-01T12:49:14.893Z,51.78
2017-07-01T12:50:14.934Z,51.59
2017-07-01T12:51:14.975Z,50.93
2017-07-01T12:52:15.327Z,50.84
2017-07-01T12:53:15.077Z,51.23
2017-07-01T12:54:15.102Z,51.23
2017-07-01T12:55:15.156Z,51.32
2017-07-01T12:56:15.189Z,51.32